createdAt,value
2022-11-10T00:04:58.682Z,36.20
2022-11-10T00:15:22.573Z,35.00
2022-11-10T00:25:29.309Z,34.50
2022-11-10T00:35:34.919Z,33.70
2022-11-10T00:45:45.019Z,36.60
2022-11-10T00:55:50.936Z,33.60
2022-11-10T01:05:56.548Z,33.10
2022-11-10T01:16:06.642Z,35.90
2022-11-10T01:26:12.866Z,32.50
2022-11-10T01:36:18.595Z,33.30
2022-11-10T01:46:24.233Z,29.00
2022-11-10T01:56:33.661Z,34.60
2022-11-10T02:06:42.940Z,30.70
2022-11-10T02:16:48.648Z,30.80
2022-11-10T02:26:57.000Z,34.80
2022-11-10T02:37:02.526Z,35.40
2022-11-10T02:47:09.077Z,34.40
2022-11-10T02:57:14.607Z,28.50
2022-11-10T03:07:20.259Z,30.70
2022-11-10T03:17:26.047Z,29.90
2022-11-10T03:27:32.051Z,32.20
2022-11-10T03:37:37.677Z,30.00
2022-11-10T03:47:45.506Z,31.60
2022-11-10T03:57:51.094Z,32.60
2022-11-10T04:08:20.570Z,33.20
2022-11-10T04:18:26.438Z,30.30
2022-11-10T04:28:32.054Z,26.10
2022-11-10T04:38:38.089Z,27.30
2022-11-10T04:48:43.649Z,31.10
2022-11-10T04:58:49.514Z,33.00
2022-11-10T05:08:55.374Z,29.70
2022-11-10T05:19:00.913Z,29.70
2022-11-10T05:29:06.529Z,27.90
2022-11-10T05:39:12.353Z,34.80
2022-11-10T05:49:18.143Z,31.60
2022-11-10T05:59:23.762Z,34.10
2022-11-10T06:09:29.384Z,28.10
2022-11-10T06:19:35.074Z,32.40
2022-11-10T06:29:40.765Z,29.60
2022-11-10T06:39:46.571Z,32.70
2022-11-10T06:49:52.270Z,30.30
2022-11-10T06:59:57.965Z,29.00
2022-11-10T07:10:06.993Z,26.90
2022-11-10T07:20:14.078Z,26.20
2022-11-10T07:30:20.137Z,26.40
2022-11-10T07:40:26.044Z,26.20
2022-11-10T07:50:32.381Z,26.80
2022-11-10T08:00:39.306Z,28.60
2022-11-10T08:10:45.090Z,24.80
2022-11-10T08:20:50.905Z,24.10
2022-11-10T08:30:59.316Z,20.70
2022-11-10T08:41:07.481Z,21.40
2022-11-10T08:51:13.205Z,23.30
2022-11-10T09:01:18.917Z,20.60
2022-11-10T09:11:24.542Z,19.00
2022-11-10T09:21:30.181Z,17.20
2022-11-10T09:31:35.865Z,16.00
2022-11-10T09:41:45.959Z,15.20
2022-11-10T09:51:53.642Z,17.10
2022-11-10T10:02:04.101Z,17.10
2022-11-10T10:12:24.701Z,18.30
2022-11-10T10:22:47.089Z,15.60
2022-11-10T10:32:58.075Z,15.60
2022-11-10T10:43:04.581Z,15.90
2022-11-10T10:53:16.271Z,16.70
2022-11-10T11:03:29.944Z,13.60
2022-11-10T11:13:35.947Z,11.00
2022-11-10T11:23:54.656Z,14.90
2022-11-10T11:34:07.483Z,12.60
2022-11-10T11:44:25.544Z,9.90
2022-11-10T12:04:46.453Z,12.30
2022-11-10T12:15:00.278Z,12.00
2022-11-10T12:25:14.443Z,10.70
2022-11-10T12:35:24.355Z,13.40
2022-11-10T12:45:33.819Z,10.80
2022-11-10T12:55:43.890Z,7.40
2022-11-10T13:05:58.336Z,11.70
2022-11-10T13:16:04.026Z,8.90
2022-11-10T13:26:12.894Z,11.30
2022-11-10T13:36:39.520Z,9.60
2022-11-10T13:47:14.131Z,9.10
2022-11-10T13:57:32.743Z,6.90
2022-11-10T14:07:42.510Z,6.70
2022-11-10T14:17:51.662Z,6.60
2022-11-10T14:27:58.623Z,7.90
2022-11-10T14:38:07.672Z,10.40
2022-11-10T14:48:21.773Z,14.20
2022-11-10T14:58:33.135Z,14.80
2022-11-10T15:08:39.257Z,10.10
2022-11-10T15:18:45.658Z,6.70
2022-11-10T15:28:52.023Z,11.70
2022-11-10T15:39:16.869Z,13.20
2022-11-10T15:49:26.369Z,9.40
2022-11-10T15:59:32.584Z,9.90
2022-11-10T16:09:38.306Z,12.80
2022-11-10T16:19:44.059Z,14.10
2022-11-10T16:29:49.672Z,15.50
2022-11-10T16:39:55.601Z,21.80
2022-11-10T16:50:01.397Z,26.20
2022-11-10T17:00:08.806Z,26.10
2022-11-10T17:10:19.785Z,22.20
2022-11-10T17:20:29.923Z,28.90
2022-11-10T17:30:36.470Z,23.90
2022-11-10T17:40:43.817Z,49.00
2022-11-10T17:50:49.490Z,42.60
2022-11-10T18:00:55.160Z,27.20
2022-11-10T18:11:02.937Z,30.20
2022-11-10T18:21:09.671Z,26.50
2022-11-10T18:31:15.468Z,24.30
2022-11-10T18:41:39.152Z,23.80
2022-11-10T18:51:45.076Z,31.20
2022-11-10T19:01:51.317Z,34.30
2022-11-10T19:11:57.539Z,39.60
2022-11-10T19:22:03.114Z,38.40
2022-11-10T19:32:08.851Z,37.40
2022-11-10T19:42:14.936Z,46.80
2022-11-10T19:52:20.645Z,47.50
2022-11-10T20:02:26.326Z,46.90
2022-11-10T20:12:32.209Z,94.80
2022-11-10T20:22:37.935Z,99.80
2022-11-10T20:32:43.666Z,89.50
2022-11-10T20:42:49.817Z,78.40
2022-11-10T20:52:55.856Z,59.60
2022-11-10T21:03:01.444Z,72.00
2022-11-10T21:13:07.084Z,61.40
2022-11-10T21:23:13.054Z,53.60
2022-11-10T21:33:19.165Z,57.00
2022-11-10T21:43:25.082Z,52.70
2022-11-10T21:53:31.549Z,46.40
2022-11-10T22:03:39.082Z,44.20
2022-11-10T22:14:02.764Z,47.00
2022-11-10T22:24:24.214Z,49.70
2022-11-10T22:34:30.301Z,43.90
2022-11-10T22:44:37.244Z,39.20
2022-11-10T22:54:43.293Z,42.70
2022-11-10T23:04:49.277Z,39.20
2022-11-10T23:14:55.046Z,38.40
2022-11-10T23:25:00.782Z,35.00
2022-11-10T23:35:07.072Z,30.50
2022-11-10T23:45:13.349Z,31.90
2022-11-10T23:55:19.211Z,31.20
